createdAt,value
2019-03-16T00:00:28.794Z,6.81
2019-03-16T00:05:28.753Z,6.75
2019-03-16T00:10:28.789Z,6.75
2019-03-16T00:15:28.907Z,6.69
2019-03-16T00:20:28.815Z,6.69
2019-03-16T00:25:28.808Z,6.63
2019-03-16T00:30:28.821Z,6.56
2019-03-16T00:35:28.766Z,6.5
2019-03-16T00:40:28.807Z,6.5
2019-03-16T00:45:28.805Z,6.44
2019-03-16T00:50:28.762Z,6.44
2019-03-16T00:55:28.952Z,6.38
2019-03-16T01:00:28.820Z,6.38
2019-03-16T01:05:28.830Z,6.44
2019-03-16T01:10:28.826Z,6.44
2019-03-16T01:15:28.828Z,6.44
2019-03-16T01:20:28.788Z,6.38
2019-03-16T01:25:28.832Z,6.38
2019-03-16T01:30:28.833Z,6.44
2019-03-16T01:35:28.933Z,6.38
2019-03-16T01:40:28.848Z,6.44
2019-03-16T01:45:28.850Z,6.38
2019-03-16T01:50:28.833Z,6.5
2019-03-16T01:55:28.832Z,6.5
2019-03-16T02:00:28.848Z,6.5
2019-03-16T02:05:28.803Z,6.44
2019-03-16T02:10:28.865Z,6.5
2019-03-16T02:15:28.855Z,6.5
2019-03-16T02:20:28.808Z,6.5
2019-03-16T02:25:28.865Z,6.56
2019-03-16T02:30:28.873Z,6.56
2019-03-16T02:35:28.823Z,6.56
2019-03-16T02:40:28.890Z,6.56
2019-03-16T02:45:28.869Z,6.56
2019-03-16T02:50:28.872Z,6.63
2019-03-16T02:55:28.901Z,6.63
2019-03-16T03:00:28.891Z,6.56
2019-03-16T03:05:28.873Z,6.56
2019-03-16T03:10:28.886Z,6.56
2019-03-16T03:15:28.885Z,6.56
2019-03-16T03:20:28.886Z,6.56
2019-03-16T03:25:28.890Z,6.56
2019-03-16T03:30:28.880Z,6.56
2019-03-16T03:35:29.486Z,6.56
2019-03-16T03:40:28.906Z,6.5
2019-03-16T03:45:28.895Z,6.38
2019-03-16T03:50:28.898Z,6.38
2019-03-16T03:55:28.919Z,6.31
2019-03-16T04:00:28.908Z,6.25
2019-03-16T04:05:28.909Z,6.19
2019-03-16T04:10:28.907Z,6.19
2019-03-16T04:15:28.931Z,6.19
2019-03-16T04:20:28.935Z,6.19
2019-03-16T04:25:28.932Z,6.19
2019-03-16T04:30:28.925Z,6.25
2019-03-16T04:35:29.007Z,6.25
2019-03-16T04:40:28.911Z,6.25
2019-03-16T04:45:28.930Z,6.31
2019-03-16T04:50:28.878Z,6.31
2019-03-16T04:55:28.928Z,6.38
2019-03-16T05:00:28.942Z,6.31
2019-03-16T05:05:28.949Z,6.38
2019-03-16T05:10:28.938Z,6.38
2019-03-16T05:15:28.893Z,6.38
2019-03-16T05:20:28.899Z,6.38
2019-03-16T05:25:28.953Z,6.31
2019-03-16T05:30:28.960Z,6.31
2019-03-16T05:35:28.939Z,6.38
2019-03-16T05:40:28.960Z,6.38
2019-03-16T05:45:28.897Z,6.44
2019-03-16T05:50:28.955Z,6.5
2019-03-16T05:55:28.944Z,6.5
2019-03-16T06:00:28.957Z,6.5
2019-03-16T06:05:28.951Z,6.56
2019-03-16T06:10:28.952Z,6.5
2019-03-16T06:15:28.975Z,6.56
2019-03-16T06:20:28.964Z,6.5
2019-03-16T06:25:28.936Z,6.5
2019-03-16T06:30:28.924Z,6.56
2019-03-16T06:35:29.459Z,6.56
2019-03-16T06:40:28.969Z,6.63
2019-03-16T06:45:28.959Z,6.69
2019-03-16T06:50:28.988Z,6.69
2019-03-16T06:55:28.968Z,6.75
2019-03-16T07:00:28.988Z,6.75
2019-03-16T07:05:37.951Z,6.81
2019-03-16T07:10:29.075Z,6.88
2019-03-16T07:15:28.998Z,6.88
2019-03-16T07:20:28.948Z,6.94
2019-03-16T07:25:28.982Z,7.06
2019-03-16T07:30:28.952Z,7.06
2019-03-16T07:35:29.001Z,7.06
2019-03-16T07:40:28.979Z,7.13
2019-03-16T07:45:29.017Z,7.25
2019-03-16T07:50:28.966Z,7.25
2019-03-16T07:55:28.989Z,7.25
2019-03-16T08:00:29.021Z,7.31
2019-03-16T08:05:29.005Z,7.38
2019-03-16T08:10:29.026Z,7.44
2019-03-16T08:15:28.972Z,7.44
2019-03-16T08:20:31.408Z,7.38
2019-03-16T08:25:29.018Z,7.13
2019-03-16T08:30:29.033Z,7
2019-03-16T08:35:29.024Z,6.94
2019-03-16T08:40:29.020Z,6.88
2019-03-16T08:45:29.042Z,6.81
2019-03-16T08:50:29.031Z,6.88
2019-03-16T08:55:29.027Z,6.81
2019-03-16T09:00:29.019Z,6.75
2019-03-16T09:05:29.044Z,6.69
2019-03-16T09:10:29.054Z,6.44
2019-03-16T09:15:29.031Z,6.25
2019-03-16T09:20:29.054Z,6.13
2019-03-16T09:25:29.028Z,6
2019-03-16T09:30:29.064Z,5.94
2019-03-16T09:35:29.066Z,5.81
2019-03-16T09:40:29.142Z,5.75
2019-03-16T09:45:29.061Z,5.81
2019-03-16T09:50:29.053Z,5.69
2019-03-16T09:55:29.015Z,5.75
2019-03-16T10:00:29.065Z,5.69
2019-03-16T10:05:29.010Z,5.69
2019-03-16T10:10:29.069Z,5.56
2019-03-16T10:15:29.079Z,5.56
2019-03-16T10:20:29.061Z,5.5
2019-03-16T10:25:29.060Z,5.38
2019-03-16T10:30:29.098Z,5.31
2019-03-16T10:35:29.072Z,5.31
2019-03-16T10:40:29.107Z,5.44
2019-03-16T10:45:29.073Z,5.69
2019-03-16T10:50:29.096Z,5.63
2019-03-16T10:55:29.070Z,5.69
2019-03-16T11:00:29.093Z,5.69
2019-03-16T11:05:29.102Z,5.63
2019-03-16T11:10:29.082Z,5.75
2019-03-16T11:15:29.100Z,5.81
2019-03-16T11:20:29.089Z,5.88
2019-03-16T11:25:29.097Z,5.94
2019-03-16T11:30:29.112Z,6.06
2019-03-16T11:35:29.097Z,6.06
2019-03-16T11:40:29.113Z,6.19
2019-03-16T11:45:29.110Z,6.25
2019-03-16T11:50:29.134Z,6.31
2019-03-16T11:55:29.121Z,6.38
2019-03-16T12:00:29.133Z,6.38
2019-03-16T12:05:29.108Z,6.25
2019-03-16T12:10:29.120Z,6.31
2019-03-16T12:15:29.135Z,6.19
2019-03-16T12:20:29.112Z,6.13
2019-03-16T12:25:29.119Z,6.19
2019-03-16T12:30:29.143Z,6.31
2019-03-16T12:35:29.082Z,6.44
2019-03-16T12:40:29.125Z,6.63
2019-03-16T12:45:29.158Z,6.81
2019-03-16T12:50:29.159Z,7
2019-03-16T12:55:29.124Z,7.06
2019-03-16T13:00:29.093Z,7.13
2019-03-16T13:05:29.149Z,7.19
2019-03-16T13:10:29.133Z,7.25
2019-03-16T13:15:29.141Z,7.38
2019-03-16T13:20:29.140Z,7.5
2019-03-16T13:25:29.158Z,7.69
2019-03-16T13:30:29.160Z,7.69
2019-03-16T13:35:29.160Z,7.81
2019-03-16T13:40:29.165Z,7.81
2019-03-16T13:45:29.142Z,7.94
2019-03-16T13:50:29.162Z,8.06
2019-03-16T13:55:29.169Z,8.13
2019-03-16T14:00:29.171Z,8.19
2019-03-16T14:05:29.171Z,8.31
2019-03-16T14:10:29.187Z,8.38
2019-03-16T14:15:29.158Z,8.44
2019-03-16T14:20:29.193Z,8.5
2019-03-16T14:25:29.180Z,8.63
2019-03-16T14:30:40.138Z,8.69
2019-03-16T14:35:29.203Z,8.75
2019-03-16T14:40:29.259Z,8.81
2019-03-16T14:45:29.187Z,9.06
2019-03-16T14:50:29.193Z,9.19
2019-03-16T14:55:29.222Z,9.44
2019-03-16T15:00:38.089Z,9.69
2019-03-16T15:05:29.191Z,10.06
2019-03-16T15:10:29.211Z,10.38
2019-03-16T15:15:29.212Z,10.44
2019-03-16T15:20:29.164Z,10.5
2019-03-16T15:25:29.221Z,10.63
2019-03-16T15:30:29.203Z,10.69
2019-03-16T15:35:29.227Z,10.69
2019-03-16T15:40:29.207Z,10.75
2019-03-16T15:45:29.235Z,10.81
2019-03-16T15:50:29.232Z,10.81
2019-03-16T15:55:29.222Z,10.81
2019-03-16T16:00:29.203Z,10.81
2019-03-16T16:05:29.226Z,10.81
2019-03-16T16:10:29.238Z,10.75
2019-03-16T16:15:29.243Z,10.69
2019-03-16T16:20:29.219Z,10.69
2019-03-16T16:25:29.248Z,10.69
2019-03-16T16:30:29.187Z,10.69
2019-03-16T16:35:29.225Z,10.69
2019-03-16T16:40:29.244Z,10.63
2019-03-16T16:45:29.238Z,10.63
2019-03-16T16:50:29.259Z,10.63
2019-03-16T16:55:29.348Z,10.63
2019-03-16T17:00:29.257Z,10.56
2019-03-16T17:05:29.211Z,10.44
2019-03-16T17:10:29.268Z,10.44
2019-03-16T17:15:29.309Z,10.44
2019-03-16T17:20:29.252Z,10.38
2019-03-16T17:25:29.262Z,10.38
2019-03-16T17:30:29.274Z,10.31
2019-03-16T17:35:29.257Z,10.31
2019-03-16T17:40:29.268Z,10.25
2019-03-16T17:45:29.279Z,10.25
2019-03-16T17:50:29.264Z,10.31
2019-03-16T17:55:29.274Z,10.38
2019-03-16T18:00:29.291Z,10.38
2019-03-16T18:05:29.270Z,10.38
2019-03-16T18:10:29.271Z,10.38
2019-03-16T18:15:29.246Z,10.31
2019-03-16T18:20:29.301Z,10.31
2019-03-16T18:25:29.277Z,10.31
2019-03-16T18:30:29.292Z,10.31
2019-03-16T18:35:29.313Z,10.31
2019-03-16T18:40:29.301Z,10.31
2019-03-16T18:45:29.310Z,10.31
2019-03-16T18:50:29.288Z,10.31
2019-03-16T18:55:29.317Z,10.25
2019-03-16T19:00:29.318Z,10.31
2019-03-16T19:05:29.306Z,10.31
2019-03-16T19:10:29.308Z,10.25
2019-03-16T19:15:29.324Z,10.19
2019-03-16T19:20:29.330Z,10.13
2019-03-16T19:25:29.295Z,10.06
2019-03-16T19:30:29.320Z,10.06
2019-03-16T19:35:29.272Z,10.06
2019-03-16T19:40:29.322Z,10.06
2019-03-16T19:45:29.324Z,9.94
2019-03-16T19:50:29.341Z,9.88
2019-03-16T19:55:29.338Z,9.88
2019-03-16T20:00:29.281Z,9.88
2019-03-16T20:05:29.341Z,9.69
2019-03-16T20:10:29.422Z,9.69
2019-03-16T20:15:29.345Z,9.63
2019-03-16T20:20:29.345Z,9.63
2019-03-16T20:25:29.335Z,9.63
2019-03-16T20:30:29.349Z,9.56
2019-03-16T20:35:29.360Z,9.56
2019-03-16T20:40:29.346Z,9.5
2019-03-16T20:45:29.427Z,9.5
2019-03-16T20:50:29.356Z,9.56
2019-03-16T20:55:29.486Z,9.63
2019-03-16T21:00:29.322Z,9.63
2019-03-16T21:05:29.374Z,9.56
2019-03-16T21:10:29.358Z,9.56
2019-03-16T21:15:29.359Z,9.5
2019-03-16T21:20:29.362Z,9.44
2019-03-16T21:25:29.315Z,9.31
2019-03-16T21:30:29.375Z,9.25
2019-03-16T21:35:29.374Z,9.19
2019-03-16T21:40:29.374Z,9.19
2019-03-16T21:45:29.330Z,9.06
2019-03-16T21:50:29.392Z,9
2019-03-16T21:55:29.389Z,9
2019-03-16T22:00:29.343Z,8.94
2019-03-16T22:05:29.393Z,8.81
2019-03-16T22:10:29.331Z,8.81
2019-03-16T22:15:29.389Z,8.81
2019-03-16T22:20:29.389Z,8.81
2019-03-16T22:25:29.379Z,8.75
2019-03-16T22:30:29.406Z,8.75
2019-03-16T22:35:29.397Z,8.75
2019-03-16T22:40:29.400Z,8.75
2019-03-16T22:45:29.414Z,8.69
2019-03-16T22:50:29.403Z,8.63
2019-03-16T22:55:29.421Z,8.63
2019-03-16T23:00:29.406Z,8.56
2019-03-16T23:05:29.408Z,8.5
2019-03-16T23:10:29.430Z,8.5
2019-03-16T23:15:29.404Z,8.5
2019-03-16T23:20:29.415Z,8.44
2019-03-16T23:25:29.402Z,8.31
2019-03-16T23:30:29.504Z,8.25
2019-03-16T23:35:29.418Z,8.13
2019-03-16T23:40:29.416Z,8.13
2019-03-16T23:45:29.456Z,8.13
2019-03-16T23:50:29.438Z,8.06
2019-03-16T23:55:29.379Z,8.06
